Time;durP1;ratioP1;P1;durP2;ratioP2;P2;SDS_P1;SDS_P2;PMS_P1;PMS_P2;Temp;Humidity;BMP_temperature;BMP_pressure;BME280_temperature;BME280_humidity;BME280_pressure;Samples;Min_cycle;Max_cycle;Signal;HPM_P1;HPM_P2
2022/03/25 00:02:42;;;;;;;7.43;3.80;;;16.00;31.40;;;;;;6111646;29;20046;-67
2022/03/25 00:05:44;;;;;;;9.50;3.67;;;16.00;31.60;;;;;;6130358;29;20130;-67
2022/03/25 00:08:45;;;;;;;5.28;3.08;;;15.90;31.70;;;;;;6129586;29;20050;-67
2022/03/25 00:11:46;;;;;;;8.38;3.42;;;15.90;32.30;;;;;;6131232;28;20054;-67
2022/03/25 00:14:47;;;;;;;6.30;2.92;;;15.90;31.80;;;;;;6114106;29;20043;-67
2022/03/25 00:17:48;;;;;;;8.50;3.35;;;15.80;31.80;;;;;;6130712;28;20043;-67
2022/03/25 00:20:49;;;;;;;8.48;3.22;;;15.80;31.90;;;;;;6130910;28;20469;-67
2022/03/25 00:23:50;;;;;;;7.38;3.00;;;15.70;32.00;;;;;;6116714;29;20359;-67
2022/03/25 00:26:50;;;;;;;7.20;3.53;;;15.70;32.20;;;;;;6130727;28;20130;-67
2022/03/25 00:29:51;;;;;;;4.97;3.10;;;15.60;32.40;;;;;;6130555;28;20532;-66
2022/03/25 00:32:54;;;;;;;10.18;3.55;;;15.60;32.60;;;;;;6129453;29;20032;-67
2022/03/25 00:35:54;;;;;;;7.10;3.40;;;15.50;32.70;;;;;;6113790;29;20082;-67
2022/03/25 00:38:56;;;;;;;8.18;3.47;;;15.50;32.90;;;;;;6129244;29;20043;-67
2022/03/25 00:41:57;;;;;;;12.90;3.90;;;15.40;32.90;;;;;;6129734;29;20035;-67
2022/03/25 00:45:01;;;;;;;6.75;3.20;;;15.40;33.00;;;;;;6126372;29;20031;-67
2022/03/25 00:48:02;;;;;;;8.02;3.78;;;15.40;33.20;;;;;;6128821;29;20106;-68
2022/03/25 00:51:05;;;;;;;9.27;4.00;;;15.40;33.30;;;;;;6130097;28;20345;-68
2022/03/25 00:54:06;;;;;;;5.90;3.30;;;15.30;33.20;;;;;;6127144;28;20060;-67
2022/03/25 00:57:07;;;;;;;8.57;3.75;;;15.30;33.10;;;;;;6129001;29;20071;-65
2022/03/25 01:00:09;;;;;;;7.63;3.60;;;15.30;33.10;;;;;;6113086;29;20040;-68
2022/03/25 01:03:10;;;;;;;7.75;3.10;;;15.30;33.30;;;;;;6127585;29;20044;-67
2022/03/25 01:06:11;;;;;;;11.18;3.58;;;15.20;33.30;;;;;;6129594;28;20114;-68
2022/03/25 01:09:14;;;;;;;7.05;3.15;;;15.20;33.60;;;;;;6128565;29;20120;-67
2022/03/25 01:12:16;;;;;;;9.35;3.35;;;15.20;33.70;;;;;;6108901;29;20043;-68
2022/03/25 01:15:17;;;;;;;8.48;3.65;;;15.20;33.80;;;;;;6128709;29;20039;-66
2022/03/25 01:18:18;;;;;;;7.05;3.88;;;15.10;33.70;;;;;;6128762;29;20465;-67
2022/03/25 01:21:21;;;;;;;6.40;3.13;;;15.10;33.90;;;;;;6128593;29;20048;-67
2022/03/25 01:24:22;;;;;;;8.80;3.70;;;15.10;33.90;;;;;;6128647;28;20051;-68
2022/03/25 01:27:24;;;;;;;6.80;3.33;;;15.00;34.00;;;;;;6112717;28;20059;-68
2022/03/25 01:30:25;;;;;;;8.68;3.25;;;15.00;34.20;;;;;;6129002;28;20051;-68
2022/03/25 01:33:27;;;;;;;14.75;3.78;;;14.90;34.50;;;;;;6127946;29;20413;-66
2022/03/25 01:36:28;;;;;;;8.50;3.35;;;14.90;34.60;;;;;;6128121;29;20048;-66
2022/03/25 01:39:29;;;;;;;6.55;3.45;;;14.80;34.50;;;;;;6126892;28;20078;-66
2022/03/25 01:42:35;;;;;;;11.57;4.07;;;14.80;34.50;;;;;;6127401;29;20043;-66
2022/03/25 01:45:38;;;;;;;15.40;4.13;;;14.80;34.50;;;;;;6127807;29;20254;-67
2022/03/25 01:48:39;;;;;;;13.38;4.22;;;14.80;34.90;;;;;;6127695;29;20044;-67
2022/03/25 01:51:39;;;;;;;7.45;3.58;;;14.80;35.10;;;;;;6127683;29;20391;-67
2022/03/25 01:54:40;;;;;;;5.55;3.25;;;14.80;35.10;;;;;;6125666;28;20559;-65
2022/03/25 01:57:43;;;;;;;8.68;4.07;;;14.70;35.00;;;;;;6127367;29;20036;-66
2022/03/25 02:00:45;;;;;;;5.78;3.33;;;14.70;35.00;;;;;;6127710;29;20044;-67
2022/03/25 02:03:47;;;;;;;10.15;3.55;;;14.70;35.00;;;;;;6128440;28;20453;-67
2022/03/25 02:06:48;;;;;;;11.43;3.65;;;14.70;35.30;;;;;;6115492;29;20048;-67
2022/03/25 02:09:50;;;;;;;10.02;3.90;;;14.70;35.40;;;;;;6111468;29;20039;-67
2022/03/25 02:12:51;;;;;;;11.77;4.07;;;14.60;35.40;;;;;;6111680;29;20039;-67
2022/03/25 02:15:55;;;;;;;10.38;3.60;;;14.60;35.50;;;;;;6127552;29;20042;-67
2022/03/25 02:18:56;;;;;;;11.40;3.72;;;14.60;35.70;;;;;;6127591;29;20028;-67
2022/03/25 02:21:57;;;;;;;11.18;4.15;;;14.60;36.00;;;;;;6131934;28;20031;-67
2022/03/25 02:25:08;;;;;;;10.02;3.65;;;14.50;36.10;;;;;;6121071;29;20532;-67
2022/03/25 02:28:10;;;;;;;10.50;4.10;;;14.50;36.10;;;;;;6126696;28;20071;-68
2022/03/25 02:31:12;;;;;;;14.95;4.15;;;14.50;37.00;;;;;;6126830;28;20054;-67
2022/03/25 02:34:13;;;;;;;8.05;3.38;;;14.50;36.30;;;;;;6127742;28;20040;-67
2022/03/25 02:37:14;;;;;;;8.32;4.00;;;14.40;36.20;;;;;;6127869;28;20363;-67
2022/03/25 02:40:16;;;;;;;5.93;3.47;;;14.40;36.10;;;;;;6125619;28;20063;-67
2022/03/25 02:43:17;;;;;;;11.98;3.97;;;14.30;35.90;;;;;;6124087;28;20044;-67
2022/03/25 02:46:28;;;;;;;8.95;4.03;;;14.30;35.80;;;;;;6112591;28;20040;-67
2022/03/25 02:49:29;;;;;;;7.15;3.47;;;14.20;35.80;;;;;;6127666;28;20492;-67
2022/03/25 02:52:30;;;;;;;8.48;3.55;;;14.10;35.80;;;;;;6126288;28;20051;-68
2022/03/25 02:55:31;;;;;;;12.57;3.72;;;14.10;36.20;;;;;;6126670;28;20039;-67
2022/03/25 02:58:32;;;;;;;8.93;4.05;;;14.10;36.40;;;;;;6120170;28;20043;-67
2022/03/25 03:01:33;;;;;;;8.23;3.50;;;14.00;36.50;;;;;;6126330;28;20043;-67
2022/03/25 03:04:34;;;;;;;6.78;3.83;;;14.00;36.70;;;;;;6126763;28;20044;-67
2022/03/25 03:07:36;;;;;;;10.38;4.10;;;14.00;36.80;;;;;;6127700;28;20436;-67
2022/03/25 03:10:36;;;;;;;7.57;4.10;;;13.90;36.70;;;;;;6126454;28;20051;-67
2022/03/25 03:13:38;;;;;;;9.70;4.07;;;14.00;37.00;;;;;;6126731;28;20036;-67
2022/03/25 03:16:39;;;;;;;11.35;4.20;;;13.90;37.20;;;;;;6126652;28;20462;-67
2022/03/25 03:19:40;;;;;;;9.98;3.63;;;14.00;37.50;;;;;;6126489;28;20102;-67
2022/03/25 03:22:41;;;;;;;11.80;4.65;;;13.90;37.40;;;;;;6126621;28;20043;-67
2022/03/25 03:25:42;;;;;;;8.13;4.13;;;13.90;37.40;;;;;;6127628;28;20040;-67
2022/03/25 03:28:44;;;;;;;5.95;3.20;;;13.90;37.20;;;;;;6126274;28;20031;-67
2022/03/25 03:31:44;;;;;;;8.15;4.10;;;13.90;37.20;;;;;;6127026;28;20044;-67
2022/03/25 03:34:45;;;;;;;7.85;3.53;;;13.80;37.10;;;;;;6127412;28;20520;-67
2022/03/25 03:37:47;;;;;;;6.57;3.40;;;13.80;36.90;;;;;;6114607;28;20044;-67
2022/03/25 03:40:47;;;;;;;7.72;3.78;;;13.80;36.80;;;;;;6131755;28;20068;-67
2022/03/25 03:43:48;;;;;;;9.68;4.25;;;13.80;36.80;;;;;;6131679;28;20031;-67
2022/03/25 03:46:49;;;;;;;7.25;3.80;;;13.70;36.70;;;;;;6124934;28;20031;-67
2022/03/25 03:49:50;;;;;;;9.80;3.60;;;13.70;36.80;;;;;;6130563;28;20389;-66
2022/03/25 03:52:51;;;;;;;10.70;3.95;;;13.60;36.80;;;;;;6130341;28;20118;-67
2022/03/25 03:55:52;;;;;;;8.45;3.33;;;13.60;36.90;;;;;;6129970;28;20123;-67
2022/03/25 03:58:53;;;;;;;6.35;3.00;;;13.50;36.80;;;;;;6131336;28;20044;-67
2022/03/25 04:01:54;;;;;;;8.20;3.90;;;13.50;36.90;;;;;;6130920;28;20035;-67
2022/03/25 04:04:54;;;;;;;6.70;3.63;;;13.50;37.00;;;;;;6130178;28;20055;-66
2022/03/25 04:07:55;;;;;;;7.57;3.22;;;13.50;36.90;;;;;;6129992;28;20552;-67
2022/03/25 04:10:56;;;;;;;6.47;3.40;;;13.40;36.80;;;;;;6131152;28;20039;-67
2022/03/25 04:13:57;;;;;;;7.38;3.45;;;13.50;36.80;;;;;;6131096;28;20051;-67
2022/03/25 04:16:58;;;;;;;8.20;3.22;;;13.50;36.70;;;;;;6131048;28;20055;-67
2022/03/25 04:19:59;;;;;;;6.93;3.47;;;13.50;36.60;;;;;;6114382;28;20094;-66
2022/03/25 04:23:00;;;;;;;10.48;3.65;;;13.50;36.50;;;;;;6128892;28;20039;-67
2022/03/25 04:26:02;;;;;;;10.55;3.10;;;13.40;36.40;;;;;;6130007;28;20044;-69
2022/03/25 04:29:03;;;;;;;8.52;4.10;;;13.40;36.40;;;;;;6113996;28;20032;-67
2022/03/25 04:32:04;;;;;;;14.05;3.85;;;13.30;36.50;;;;;;6113418;28;20477;-67
2022/03/25 04:35:05;;;;;;;7.10;3.38;;;13.20;36.60;;;;;;6130604;28;20035;-66
2022/03/25 04:38:06;;;;;;;12.77;3.70;;;13.20;36.80;;;;;;6127465;28;20043;-67
2022/03/25 04:41:10;;;;;;;7.70;3.53;;;13.20;36.90;;;;;;6130480;28;20461;-67
2022/03/25 04:44:10;;;;;;;9.95;4.20;;;13.20;37.10;;;;;;6124401;28;20074;-67
2022/03/25 04:47:11;;;;;;;11.82;3.63;;;13.10;37.10;;;;;;6127992;28;20476;-68
2022/03/25 04:50:12;;;;;;;6.72;3.55;;;13.10;37.30;;;;;;6130123;28;20043;-68
2022/03/25 04:53:14;;;;;;;6.38;3.47;;;13.00;37.40;;;;;;6128863;28;20035;-65
2022/03/25 04:56:15;;;;;;;12.63;3.97;;;13.00;37.60;;;;;;6130080;28;20031;-67
2022/03/25 04:59:17;;;;;;;8.90;3.83;;;13.00;37.90;;;;;;6129183;28;20062;-66
2022/03/25 05:02:18;;;;;;;11.23;3.42;;;13.10;38.30;;;;;;6112843;28;20036;-66
2022/03/25 05:05:19;;;;;;;7.65;3.55;;;13.00;38.20;;;;;;6129860;28;20039;-66
2022/03/25 05:08:21;;;;;;;7.63;3.45;;;13.00;38.20;;;;;;6129453;28;20036;-66
2022/03/25 05:11:22;;;;;;;7.88;3.75;;;13.00;38.20;;;;;;6129801;28;20043;-67
2022/03/25 05:14:22;;;;;;;7.90;4.15;;;13.00;38.20;;;;;;6128701;28;20050;-66
2022/03/25 05:17:23;;;;;;;14.75;4.13;;;13.00;38.50;;;;;;6129932;28;20039;-67
2022/03/25 05:20:24;;;;;;;7.82;4.15;;;13.00;38.40;;;;;;6129782;28;20040;-68
2022/03/25 05:23:25;;;;;;;9.02;3.38;;;13.00;38.20;;;;;;6118091;28;20389;-66
2022/03/25 05:26:26;;;;;;;8.85;3.63;;;13.00;38.20;;;;;;6129495;28;20118;-68
2022/03/25 05:29:28;;;;;;;9.43;4.07;;;13.00;38.40;;;;;;6129246;28;20203;-67
2022/03/25 05:32:28;;;;;;;9.60;4.03;;;12.90;38.30;;;;;;6129031;28;20119;-66
2022/03/25 05:35:30;;;;;;;10.07;3.63;;;12.90;38.30;;;;;;6128432;28;20035;-68
2022/03/25 05:38:31;;;;;;;13.88;4.15;;;12.90;38.50;;;;;;6128878;28;20060;-68
2022/03/25 05:41:33;;;;;;;9.35;4.35;;;12.80;39.10;;;;;;6129161;28;20465;-67
2022/03/25 05:44:34;;;;;;;9.75;4.38;;;12.80;39.80;;;;;;6129041;28;20036;-67
2022/03/25 05:47:36;;;;;;;10.63;4.20;;;12.80;40.60;;;;;;6128778;28;20100;-67
2022/03/25 05:50:38;;;;;;;11.15;4.18;;;12.80;41.20;;;;;;6128066;28;20106;-67
2022/03/25 05:53:42;;;;;;;11.80;4.47;;;12.70;41.60;;;;;;6127589;28;20074;-67
2022/03/25 05:56:43;;;;;;;9.55;4.13;;;12.70;41.90;;;;;;6127942;28;20044;-67
2022/03/25 05:59:45;;;;;;;12.23;4.65;;;12.70;42.00;;;;;;6112796;29;20047;-67
2022/03/25 06:02:47;;;;;;;10.13;4.47;;;12.70;42.00;;;;;;6128693;28;20111;-67
2022/03/25 06:05:47;;;;;;;11.90;4.18;;;12.60;42.10;;;;;;6128573;28;20047;-67
2022/03/25 06:08:48;;;;;;;9.15;4.32;;;12.60;42.20;;;;;;6127304;29;20036;-68
2022/03/25 06:11:51;;;;;;;10.95;4.60;;;12.60;42.60;;;;;;6128468;28;20462;-68
2022/03/25 06:14:52;;;;;;;12.20;4.07;;;12.60;43.10;;;;;;6127654;29;20090;-66
2022/03/25 06:17:53;;;;;;;8.85;4.35;;;12.50;43.20;;;;;;6128234;28;20040;-66
2022/03/25 06:20:53;;;;;;;16.45;4.03;;;12.40;43.40;;;;;;6128317;28;20184;-66
2022/03/25 06:23:55;;;;;;;7.95;4.03;;;12.40;43.60;;;;;;6125141;28;20035;-67
2022/03/25 06:26:56;;;;;;;13.63;4.80;;;12.40;43.70;;;;;;6127924;28;20063;-66
2022/03/25 06:29:57;;;;;;;10.75;4.00;;;12.40;43.90;;;;;;6127080;29;20040;-68
2022/03/25 06:32:58;;;;;;;8.88;3.65;;;12.40;44.10;;;;;;6127814;28;20059;-67
2022/03/25 06:35:59;;;;;;;8.70;4.45;;;12.40;44.30;;;;;;6126979;29;20032;-67
2022/03/25 06:39:00;;;;;;;10.85;4.63;;;12.40;44.30;;;;;;6107460;29;20055;-67
2022/03/25 06:42:01;;;;;;;15.00;4.70;;;12.30;44.40;;;;;;6128128;28;20525;-66
2022/03/25 06:45:03;;;;;;;13.25;5.20;;;12.30;44.60;;;;;;6127555;28;20032;-66
2022/03/25 06:48:05;;;;;;;10.57;5.03;;;12.30;44.70;;;;;;6127571;28;20040;-68
2022/03/25 06:51:06;;;;;;;12.38;4.88;;;12.40;44.60;;;;;;6126286;29;20044;-67
2022/03/25 06:54:07;;;;;;;9.98;4.47;;;12.40;44.60;;;;;;6123022;28;20122;-68
2022/03/25 06:57:09;;;;;;;14.00;4.70;;;12.50;44.60;;;;;;6127731;28;20031;-66
2022/03/25 07:00:12;;;;;;;13.55;5.05;;;12.50;44.40;;;;;;6128021;28;20130;-66
2022/03/25 07:03:14;;;;;;;12.02;5.28;;;12.60;44.40;;;;;;6127122;28;20046;-67
2022/03/25 07:06:21;;;;;;;13.35;5.80;;;12.60;44.30;;;;;;6127440;28;20125;-67
2022/03/25 07:09:22;;;;;;;12.38;5.40;;;12.70;44.10;;;;;;6126636;28;20422;-67
2022/03/25 07:12:23;;;;;;;25.77;5.82;;;12.80;44.00;;;;;;6131448;28;20031;-67
2022/03/25 07:15:24;;;;;;;11.63;5.20;;;12.90;43.70;;;;;;6130911;28;20094;-67
2022/03/25 07:18:25;;;;;;;13.00;5.05;;;13.00;43.60;;;;;;6131664;28;20046;-66
2022/03/25 07:21:26;;;;;;;13.13;5.38;;;13.00;43.50;;;;;;6130663;28;20039;-67
2022/03/25 07:24:27;;;;;;;14.65;5.85;;;13.00;43.30;;;;;;6130517;28;20039;-66
2022/03/25 07:27:28;;;;;;;11.80;5.55;;;13.20;43.10;;;;;;6130378;28;20032;-68
2022/03/25 07:30:29;;;;;;;12.18;5.10;;;13.20;42.60;;;;;;6114609;28;20071;-68
2022/03/25 07:33:30;;;;;;;18.08;7.00;;;13.30;42.20;;;;;;6130894;28;20039;-68
2022/03/25 07:36:31;;;;;;;14.82;5.05;;;13.40;41.80;;;;;;6131200;28;20058;-67
2022/03/25 07:39:34;;;;;;;13.20;4.93;;;13.40;41.50;;;;;;6130112;28;20331;-67
2022/03/25 07:42:39;;;;;;;11.90;4.75;;;13.50;41.00;;;;;;6130170;28;20046;-69
2022/03/25 07:45:40;;;;;;;21.02;5.20;;;13.60;40.60;;;;;;6131025;28;20365;-68
2022/03/25 07:48:41;;;;;;;10.25;5.13;;;13.80;40.10;;;;;;6131062;28;20063;-68
2022/03/25 07:51:42;;;;;;;10.80;5.47;;;13.90;39.60;;;;;;6130010;28;20115;-67
2022/03/25 07:54:43;;;;;;;15.10;5.32;;;14.10;39.30;;;;;;6113664;28;20426;-67
2022/03/25 07:57:46;;;;;;;11.15;4.90;;;14.20;38.90;;;;;;6130084;28;20063;-68
2022/03/25 08:00:51;;;;;;;9.50;4.63;;;14.40;38.60;;;;;;6131008;28;20051;-67
2022/03/25 08:03:52;;;;;;;8.40;4.75;;;14.50;38.10;;;;;;6129520;28;20043;-67
2022/03/25 08:06:54;;;;;;;9.77;4.80;;;14.70;37.70;;;;;;6130257;28;20346;-67
2022/03/25 08:09:55;;;;;;;15.55;4.72;;;14.80;37.30;;;;;;6130576;28;20040;-67
2022/03/25 08:12:56;;;;;;;11.15;4.95;;;14.90;37.00;;;;;;6130773;28;20035;-67
2022/03/25 08:15:57;;;;;;;13.25;5.47;;;15.10;36.90;;;;;;6130656;28;20343;-67
2022/03/25 08:18:58;;;;;;;8.63;4.65;;;15.30;36.60;;;;;;6129356;28;20036;-67
2022/03/25 08:21:59;;;;;;;18.67;4.90;;;15.40;36.40;;;;;;6129865;28;20046;-67
2022/03/25 08:28:19;;;;;;;14.93;5.18;;;15.70;35.80;;;;;;6130397;28;20063;-68
2022/03/25 08:31:21;;;;;;;15.57;6.05;;;15.80;35.50;;;;;;6129377;28;20114;-67
2022/03/25 08:34:22;;;;;;;19.52;6.13;;;16.00;35.30;;;;;;6128164;28;20066;-68
2022/03/25 08:37:23;;;;;;;16.45;5.47;;;16.10;35.00;;;;;;6130138;28;20377;-67
2022/03/25 08:40:26;;;;;;;11.48;5.47;;;16.30;35.00;;;;;;6103589;29;20158;-67
2022/03/25 08:43:27;;;;;;;10.43;5.32;;;16.50;34.70;;;;;;6127150;28;20071;-67
2022/03/25 08:46:28;;;;;;;27.83;5.53;;;16.60;34.30;;;;;;6127710;28;20083;-67
2022/03/25 08:49:31;;;;;;;8.68;4.03;;;16.80;33.80;;;;;;6128552;28;20433;-67
2022/03/25 08:52:32;;;;;;;23.83;4.05;;;16.80;33.60;;;;;;6129013;28;20043;-69
2022/03/25 08:55:33;;;;;;;9.57;4.25;;;16.90;33.50;;;;;;6123035;28;20036;-67
2022/03/25 08:58:34;;;;;;;20.08;4.13;;;17.00;33.30;;;;;;6128120;28;20044;-67
2022/03/25 09:01:35;;;;;;;7.82;4.38;;;17.10;33.00;;;;;;6112025;28;20047;-67
2022/03/25 09:04:36;;;;;;;12.43;4.85;;;17.20;32.90;;;;;;6128417;28;20058;-68
2022/03/25 09:07:37;;;;;;;11.48;4.30;;;17.40;32.90;;;;;;6128284;28;20032;-68
2022/03/25 09:10:38;;;;;;;15.25;4.50;;;17.50;32.70;;;;;;6112195;28;20370;-66
2022/03/25 09:13:40;;;;;;;11.85;5.07;;;17.60;32.40;;;;;;6127441;28;20042;-67
2022/03/25 09:16:41;;;;;;;11.35;5.28;;;17.80;32.40;;;;;;6127711;28;20051;-67
2022/03/25 09:19:42;;;;;;;17.60;4.93;;;17.90;32.20;;;;;;6127434;28;20489;-67
2022/03/25 09:22:44;;;;;;;10.93;5.28;;;18.00;32.00;;;;;;6125389;28;20063;-68
2022/03/25 09:25:44;;;;;;;11.85;5.53;;;18.10;32.00;;;;;;6111739;28;20035;-68
2022/03/25 09:28:45;;;;;;;12.07;5.55;;;18.20;32.00;;;;;;6112123;28;20102;-67
2022/03/25 09:31:46;;;;;;;10.48;4.95;;;18.30;31.80;;;;;;6128507;28;20391;-68
2022/03/25 09:38:07;;;;;;;11.10;4.93;;;18.50;31.70;;;;;;6126947;28;20326;-67
2022/03/25 09:41:09;;;;;;;12.27;5.45;;;18.60;31.30;;;;;;6126121;28;20381;-68
2022/03/25 09:44:10;;;;;;;19.50;5.05;;;18.70;31.40;;;;;;6125512;28;20051;-68
2022/03/25 09:47:14;;;;;;;10.23;4.85;;;18.80;31.40;;;;;;6127147;28;20044;-67
2022/03/25 09:50:17;;;;;;;10.40;4.78;;;18.80;31.10;;;;;;6127377;28;20040;-66
2022/03/25 09:53:18;;;;;;;17.58;7.03;;;18.90;31.10;;;;;;6122951;28;20043;-67
2022/03/25 09:56:19;;;;;;;16.08;4.85;;;19.00;30.90;;;;;;6125699;28;20043;-67
2022/03/25 09:59:21;;;;;;;15.52;5.68;;;19.00;30.70;;;;;;6127376;28;20351;-68
2022/03/25 10:02:22;;;;;;;12.10;5.25;;;19.10;30.50;;;;;;6126668;28;20055;-68
2022/03/25 10:05:23;;;;;;;12.85;4.32;;;19.10;31.10;;;;;;6125440;28;20039;-69
2022/03/25 10:08:31;;;;;;;13.45;5.78;;;19.20;30.50;;;;;;6125339;28;20031;-67
2022/03/25 10:11:32;;;;;;;15.98;5.53;;;19.20;30.40;;;;;;6141501;28;20036;-68
2022/03/25 10:14:33;;;;;;;14.32;4.88;;;19.40;30.50;;;;;;6126737;28;20035;-68
2022/03/25 10:17:47;;;;;;;10.95;5.60;;;19.50;30.40;;;;;;6125602;28;20369;-67
2022/03/25 10:20:53;;;;;;;10.10;4.80;;;19.60;30.50;;;;;;6125768;28;20032;-68
2022/03/25 10:23:54;;;;;;;14.30;4.80;;;19.70;30.30;;;;;;6126216;28;20108;-67
2022/03/25 10:27:04;;;;;;;16.65;7.18;;;19.80;30.00;;;;;;6127449;28;20103;-69
2022/03/25 10:30:06;;;;;;;14.07;5.22;;;19.90;29.90;;;;;;6111554;29;20047;-70
2022/03/25 10:33:09;;;;;;;17.50;5.20;;;19.90;29.80;;;;;;6125363;28;20044;-69
2022/03/25 10:36:15;;;;;;;15.23;5.60;;;20.00;29.90;;;;;;6120067;28;20048;-68
2022/03/25 10:39:30;;;;;;;12.77;5.20;;;20.10;29.90;;;;;;6127691;28;20438;-67
2022/03/25 10:42:31;;;;;;;11.07;5.05;;;20.30;29.60;;;;;;6125293;28;20047;-69
2022/03/25 10:45:34;;;;;;;11.38;5.05;;;20.70;29.40;;;;;;6107023;29;20524;-68
2022/03/25 10:48:35;;;;;;;9.77;4.85;;;21.20;28.90;;;;;;6126116;28;20135;-68
2022/03/25 10:51:40;;;;;;;19.83;5.30;;;21.60;28.20;;;;;;6124933;28;20044;-68
2022/03/25 10:54:41;;;;;;;12.82;5.40;;;22.00;27.90;;;;;;6125884;28;20414;-68
2022/03/25 10:57:51;;;;;;;11.65;4.78;;;22.40;27.60;;;;;;6124628;28;20036;-69
2022/03/25 11:00:52;;;;;;;17.92;5.57;;;22.80;27.20;;;;;;6126381;28;20366;-69
2022/03/25 11:03:54;;;;;;;10.05;4.55;;;23.10;26.80;;;;;;6124579;28;20386;-68
2022/03/25 11:06:56;;;;;;;15.15;5.55;;;23.40;26.40;;;;;;6125067;28;20036;-69
2022/03/25 11:10:00;;;;;;;13.38;4.65;;;23.60;26.10;;;;;;6124597;28;20126;-68
2022/03/25 11:13:03;;;;;;;14.38;5.70;;;23.80;26.00;;;;;;6125312;28;20036;-68
2022/03/25 11:16:10;;;;;;;12.80;5.45;;;23.90;25.90;;;;;;6109077;28;20058;-68
2022/03/25 11:19:12;;;;;;;10.93;4.95;;;24.00;25.60;;;;;;6125819;28;20043;-67
2022/03/25 11:22:15;;;;;;;14.48;4.65;;;24.00;25.50;;;;;;6109009;28;20039;-69
2022/03/25 11:25:21;;;;;;;11.75;4.57;;;24.10;25.30;;;;;;6119241;28;20050;-68
2022/03/25 11:28:33;;;;;;;13.10;4.80;;;24.30;24.70;;;;;;6107402;28;20032;-68
2022/03/25 11:32:04;;;;;;;9.00;4.47;;;24.40;24.60;;;;;;6125239;28;20044;-68
2022/03/25 11:35:15;;;;;;;10.68;4.60;;;24.70;24.30;;;;;;6102296;28;20040;-69
2022/03/25 11:38:22;;;;;;;17.65;4.88;;;24.90;24.10;;;;;;6125255;28;20539;-68
2022/03/25 11:41:27;;;;;;;10.47;4.80;;;25.30;23.10;;;;;;6125922;28;20492;-69
2022/03/25 11:44:29;;;;;;;7.72;4.50;;;25.50;22.40;;;;;;6124226;28;20126;-68
2022/03/25 11:47:30;;;;;;;9.07;4.65;;;25.80;22.10;;;;;;6125912;28;20044;-68
2022/03/25 11:50:40;;;;;;;9.15;4.22;;;26.10;21.40;;;;;;6125161;28;20044;-69
2022/03/25 11:53:40;;;;;;;9.00;4.00;;;26.30;21.40;;;;;;6125490;28;20059;-68
2022/03/25 11:56:48;;;;;;;8.43;4.60;;;26.80;21.20;;;;;;6125217;28;20052;-70
2022/03/25 11:59:51;;;;;;;11.85;4.90;;;27.20;20.60;;;;;;6128696;28;20032;-67
2022/03/25 12:03:03;;;;;;;12.30;5.38;;;27.70;20.20;;;;;;6128338;28;20035;-68
2022/03/25 12:06:04;;;;;;;9.70;5.13;;;28.10;19.90;;;;;;6127206;28;20123;-68
2022/03/25 12:09:15;;;;;;;13.55;5.55;;;28.50;19.40;;;;;;6127694;28;20525;-68
2022/03/25 12:12:16;;;;;;;13.85;5.97;;;28.90;19.30;;;;;;6129480;28;20377;-68
2022/03/25 12:15:17;;;;;;;11.45;5.28;;;29.50;19.20;;;;;;6128416;28;20039;-68
2022/03/25 12:18:44;;;;;;;14.00;5.00;;;29.90;18.90;;;;;;6124246;28;20391;-67
2022/03/25 12:21:45;;;;;;;10.50;5.30;;;30.40;18.30;;;;;;6123943;28;20410;-68
2022/03/25 12:24:51;;;;;;;14.27;5.60;;;30.80;18.20;;;;;;6126258;28;20070;-68
2022/03/25 12:27:52;;;;;;;8.85;4.72;;;31.20;17.90;;;;;;6126014;28;20119;-68
2022/03/25 12:30:55;;;;;;;9.05;4.47;;;31.70;17.50;;;;;;6107124;28;20050;-68
2022/03/25 12:33:58;;;;;;;11.55;4.97;;;32.20;17.20;;;;;;6122146;28;20044;-68
2022/03/25 12:37:02;;;;;;;10.82;4.43;;;32.70;16.90;;;;;;6124464;28;20136;-68
2022/03/25 12:40:17;;;;;;;9.88;4.82;;;33.30;16.50;;;;;;6120157;28;20115;-68
2022/03/25 12:43:18;;;;;;;9.52;5.50;;;33.80;16.00;;;;;;6118351;28;20450;-69
2022/03/25 12:46:24;;;;;;;10.30;4.93;;;34.30;15.50;;;;;;6123420;28;20355;-69
2022/03/25 12:49:25;;;;;;;12.48;5.18;;;34.60;15.30;;;;;;6122448;28;20469;-68
2022/03/25 12:52:27;;;;;;;10.95;4.78;;;35.00;15.10;;;;;;6119883;28;20048;-68
2022/03/25 12:55:29;;;;;;;10.77;5.13;;;35.20;14.70;;;;;;6120534;28;20461;-69
2022/03/25 12:58:30;;;;;;;5.95;4.10;;;35.60;14.50;;;;;;6112182;28;20463;-69
2022/03/25 13:01:31;;;;;;;7.57;4.28;;;35.80;14.10;;;;;;6123448;28;20035;-68
2022/03/25 13:04:32;;;;;;;7.53;4.70;;;35.90;13.80;;;;;;6137715;28;20031;-68
2022/03/25 13:07:33;;;;;;;8.18;4.88;;;36.00;13.80;;;;;;6120868;28;20036;-68
2022/03/25 13:10:36;;;;;;;7.90;4.07;;;36.10;13.70;;;;;;6120131;28;20044;-68
2022/03/25 13:13:38;;;;;;;10.40;4.72;;;36.30;13.70;;;;;;6122893;28;20358;-68
2022/03/25 13:16:46;;;;;;;6.95;4.30;;;36.50;13.50;;;;;;6121254;28;20063;-68
2022/03/25 13:19:56;;;;;;;12.05;4.85;;;36.60;13.30;;;;;;6117374;28;20111;-68
2022/03/25 13:23:10;;;;;;;8.63;4.38;;;36.60;13.20;;;;;;6122030;28;20032;-68
2022/03/25 13:26:11;;;;;;;8.35;4.47;;;36.60;13.10;;;;;;6104726;28;20056;-68
2022/03/25 13:29:12;;;;;;;7.88;4.32;;;36.80;13.10;;;;;;6120217;28;20035;-68
2022/03/25 13:32:33;;;;;;;12.85;4.82;;;36.70;12.90;;;;;;6100760;28;20047;-68
2022/03/25 13:35:57;;;;;;;8.60;4.65;;;36.70;13.10;;;;;;6119835;28;20512;-68
2022/03/25 13:39:14;;;;;;;9.80;4.70;;;36.70;12.90;;;;;;6119384;28;20039;-68
2022/03/25 13:42:15;;;;;;;8.43;5.03;;;36.50;12.80;;;;;;6118963;28;20032;-68
2022/03/25 13:45:19;;;;;;;9.90;4.70;;;35.80;13.00;;;;;;6121551;28;20373;-68
2022/03/25 13:48:20;;;;;;;12.70;5.18;;;34.40;13.70;;;;;;6120831;28;20056;-68
2022/03/25 13:51:31;;;;;;;9.80;4.72;;;33.10;14.20;;;;;;6118058;28;20047;-68
2022/03/25 13:54:32;;;;;;;10.80;5.18;;;31.80;15.00;;;;;;6118958;28;20465;-69
2022/03/25 13:57:33;;;;;;;10.20;5.70;;;30.70;15.80;;;;;;6122409;28;20049;-68
2022/03/25 14:00:38;;;;;;;10.32;5.32;;;29.70;16.40;;;;;;6122828;28;20377;-69
2022/03/25 14:03:41;;;;;;;14.38;5.40;;;28.90;16.90;;;;;;6118174;28;20067;-68
2022/03/25 14:06:54;;;;;;;9.65;5.68;;;28.20;17.20;;;;;;6121559;28;20087;-68
2022/03/25 14:10:01;;;;;;;10.07;5.20;;;27.60;17.50;;;;;;6118829;28;20047;-67
2022/03/25 14:13:05;;;;;;;13.50;5.72;;;27.10;18.00;;;;;;6119992;28;20485;-68
2022/03/25 14:16:14;;;;;;;11.07;5.65;;;26.70;18.30;;;;;;6123193;28;20040;-68
2022/03/25 14:19:17;;;;;;;16.05;6.25;;;26.30;18.70;;;;;;6119448;28;20637;-68
2022/03/25 14:22:18;;;;;;;12.55;5.75;;;26.10;19.20;;;;;;6124099;28;20095;-68
2022/03/25 14:25:22;;;;;;;12.38;5.38;;;25.90;19.50;;;;;;6122742;28;20118;-68
2022/03/25 14:28:27;;;;;;;11.70;6.10;;;25.70;19.90;;;;;;6123916;28;20110;-68
2022/03/25 14:31:28;;;;;;;18.77;6.00;;;25.50;20.00;;;;;;6124088;28;20043;-67
2022/03/25 14:34:29;;;;;;;13.43;6.13;;;25.50;20.00;;;;;;6122794;28;20099;-68
2022/03/25 14:37:30;;;;;;;16.92;6.10;;;25.40;20.10;;;;;;6124478;28;20074;-68
2022/03/25 14:40:31;;;;;;;22.15;6.13;;;25.20;20.30;;;;;;6124671;28;20058;-68
2022/03/25 14:43:32;;;;;;;10.25;5.68;;;25.20;20.40;;;;;;6120843;28;20039;-68
2022/03/25 14:46:41;;;;;;;14.55;5.03;;;25.10;20.40;;;;;;6117664;28;20039;-68
2022/03/25 14:49:43;;;;;;;13.95;5.68;;;25.10;20.30;;;;;;6123373;28;20071;-70
2022/03/25 14:52:44;;;;;;;14.45;5.60;;;25.00;20.70;;;;;;6124422;28;20472;-68
2022/03/25 14:55:45;;;;;;;12.55;5.43;;;24.90;20.40;;;;;;6117520;28;20043;-69
2022/03/25 14:58:46;;;;;;;11.32;5.45;;;24.90;20.70;;;;;;6124380;28;20042;-70
2022/03/25 15:01:46;;;;;;;12.68;5.93;;;24.90;20.90;;;;;;6122746;28;20171;-68
2022/03/25 15:04:47;;;;;;;13.88;5.55;;;24.80;20.80;;;;;;6124255;28;20040;-67
2022/03/25 15:07:48;;;;;;;21.48;6.00;;;24.60;20.80;;;;;;6117687;28;20111;-68
2022/03/25 15:10:49;;;;;;;12.90;6.07;;;24.80;20.80;;;;;;6118227;28;20044;-68
2022/03/25 15:13:51;;;;;;;12.48;5.60;;;24.70;20.90;;;;;;6119884;28;20044;-67
2022/03/25 15:16:52;;;;;;;23.73;10.98;;;24.70;20.90;;;;;;6115572;28;20377;-69
2022/03/25 15:19:53;;;;;;;19.42;6.85;;;24.70;21.00;;;;;;6105833;28;20039;-69
2022/03/25 15:22:54;;;;;;;10.40;6.07;;;24.70;21.20;;;;;;6120234;28;20473;-67
2022/03/25 15:25:56;;;;;;;11.35;5.57;;;24.70;21.40;;;;;;6120303;28;20118;-66
2022/03/25 15:28:57;;;;;;;14.38;5.18;;;24.70;21.50;;;;;;6119090;28;20044;-68
2022/03/25 15:35:17;;;;;;;9.85;5.53;;;24.60;21.30;;;;;;6128101;28;20047;-68
2022/03/25 15:38:18;;;;;;;11.50;5.57;;;24.60;21.30;;;;;;6128093;28;20035;-67
2022/03/25 15:41:19;;;;;;;16.77;6.43;;;24.50;21.20;;;;;;6129483;28;20377;-67
2022/03/25 15:44:19;;;;;;;14.23;6.25;;;24.50;21.40;;;;;;6112327;28;20051;-69
2022/03/25 15:47:20;;;;;;;14.05;6.40;;;24.50;21.40;;;;;;6128928;28;20032;-67
2022/03/25 15:50:21;;;;;;;16.25;5.88;;;24.50;21.60;;;;;;6128781;28;20127;-69
2022/03/25 15:53:25;;;;;;;11.20;5.68;;;24.50;21.80;;;;;;6125333;28;20047;-68